Time;durP1;ratioP1;P1;durP2;ratioP2;P2;SDS_P1;SDS_P2;PMS_P1;PMS_P2;Temp;Humidity;BMP_temperature;BMP_pressure;BME280_temperature;BME280_humidity;BME280_pressure;Samples;Min_cycle;Max_cycle;Signal;HPM_P1;HPM_P2
2023/05/16 00:00:08;;;;;;;16.73;12.68;;;;;;;15.28;78.92;99143.00;406200;23;18292;-72
2023/05/16 00:00:20;;;;;;;16.48;12.50;;;;;;;15.20;79.42;99144.41;405823;23;9851;-73
2023/05/16 00:00:34;;;;;;;16.35;12.52;;;;;;;15.13;79.73;99144.78;409115;23;4457;-72
2023/05/16 00:00:47;;;;;;;14.68;12.07;;;;;;;15.11;79.78;99149.25;405754;23;19127;-72
2023/05/16 00:01:00;;;;;;;14.68;11.98;;;;;;;15.07;80.01;99150.38;409585;23;5578;-72
2023/05/16 00:01:12;;;;;;;15.48;12.30;;;;;;;15.10;79.78;99144.13;405148;23;18142;-72
2023/05/16 00:01:28;;;;;;;16.38;12.60;;;;;;;15.09;79.42;99150.25;409297;23;5206;-72
2023/05/16 00:01:41;;;;;;;18.08;12.82;;;;;;;15.04;79.72;99150.53;405265;23;17408;-72
2023/05/16 00:01:53;;;;;;;19.27;12.98;;;;;;;14.99;79.94;99144.75;409400;23;4506;-72
2023/05/16 00:02:05;;;;;;;19.92;13.30;;;;;;;14.97;80.07;99146.63;406027;23;8907;-73
2023/05/16 00:02:18;;;;;;;20.45;13.25;;;;;;;14.95;80.35;99151.06;409443;23;4433;-71
2023/05/16 00:02:30;;;;;;;19.02;13.00;;;;;;;14.92;80.46;99146.88;406170;23;9437;-73
2023/05/16 00:02:42;;;;;;;16.45;12.90;;;;;;;14.95;80.17;99145.84;409548;23;4440;-72
2023/05/16 00:02:54;;;;;;;15.45;13.05;;;;;;;14.98;80.32;99145.69;409053;23;5407;-72
2023/05/16 00:03:07;;;;;;;15.60;13.10;;;;;;;15.00;80.19;99142.97;405829;23;18012;-71
2023/05/16 00:03:19;;;;;;;17.33;13.02;;;;;;;15.01;80.05;99145.50;409265;23;4467;-72
2023/05/16 00:03:31;;;;;;;18.05;13.00;;;;;;;15.02;80.18;99141.94;404971;23;17894;-72
2023/05/16 00:03:44;;;;;;;18.25;13.20;;;;;;;14.99;80.21;99142.13;409508;23;5039;-72
2023/05/16 00:03:56;;;;;;;18.23;13.48;;;;;;;14.96;80.37;99151.00;405843;23;18357;-72
2023/05/16 00:04:08;;;;;;;19.52;14.00;;;;;;;14.99;80.37;99147.38;408652;23;4579;-71
2023/05/16 00:04:21;;;;;;;19.05;13.48;;;;;;;15.00;80.30;99142.97;405859;23;18027;-72
2023/05/16 00:04:35;;;;;;;17.05;12.93;;;;;;;15.03;80.14;99146.25;408632;23;5354;-72
2023/05/16 00:04:47;;;;;;;18.75;13.38;;;;;;;15.06;80.06;99148.69;404012;23;18266;-72
2023/05/16 00:04:59;;;;;;;19.50;13.65;;;;;;;15.07;79.85;99145.16;408831;23;4663;-72
2023/05/16 00:05:14;;;;;;;18.60;13.45;;;;;;;15.05;79.86;99152.25;406243;23;18494;-73
2023/05/16 00:05:26;;;;;;;19.08;13.50;;;;;;;15.05;79.79;99149.63;404655;23;18037;-72
2023/05/16 00:05:38;;;;;;;18.33;13.68;;;;;;;14.96;79.99;99150.16;409075;23;4440;-72
2023/05/16 00:05:50;;;;;;;18.83;13.75;;;;;;;15.00;80.03;99143.81;406218;23;10053;-72
2023/05/16 00:06:04;;;;;;;19.70;13.65;;;;;;;15.01;79.92;99148.13;408787;23;4588;-72
2023/05/16 00:06:16;;;;;;;19.67;13.65;;;;;;;15.00;79.91;99149.03;406035;23;18120;-72
2023/05/16 00:06:28;;;;;;;17.85;13.63;;;;;;;15.01;79.71;99145.50;409593;23;5110;-72
2023/05/16 00:06:41;;;;;;;18.50;14.07;;;;;;;15.04;79.95;99147.94;405516;23;18075;-72
2023/05/16 00:06:53;;;;;;;20.20;13.95;;;;;;;15.04;79.86;99142.69;409816;23;4512;-72
2023/05/16 00:07:05;;;;;;;19.25;13.18;;;;;;;15.01;80.01;99150.75;405542;23;10228;-73
2023/05/16 00:07:17;;;;;;;18.52;13.30;;;;;;;15.03;79.99;99148.88;409032;23;4428;-72
2023/05/16 00:07:30;;;;;;;18.73;13.57;;;;;;;15.04;79.73;99145.31;409437;23;5191;-72
2023/05/16 00:07:44;;;;;;;19.17;13.77;;;;;;;15.08;79.83;99152.03;406452;23;19838;-72
2023/05/16 00:07:56;;;;;;;17.45;13.88;;;;;;;15.10;79.63;99150.19;405638;23;18055;-72
2023/05/16 00:08:07;;;;;;;18.17;13.68;;;;;;;15.07;79.68;99150.38;409276;23;4596;-72
2023/05/16 00:08:19;;;;;;;18.60;13.65;;;;;;;15.05;79.73;99148.75;408916;23;5447;-72
2023/05/16 00:08:31;;;;;;;19.42;14.13;;;;;;;15.06;79.82;99151.28;405868;23;17805;-72
2023/05/16 00:08:43;;;;;;;19.40;14.20;;;;;;;15.07;79.65;99144.28;409693;23;5295;-72
2023/05/16 00:08:55;;;;;;;19.67;14.32;;;;;;;15.10;79.64;99150.19;405968;23;18693;-72
2023/05/16 00:09:07;;;;;;;18.55;14.15;;;;;;;15.12;79.22;99147.47;409083;23;4512;-71
2023/05/16 00:09:20;;;;;;;18.58;13.80;;;;;;;15.09;79.30;99147.66;409577;23;4571;-72
2023/05/16 00:09:32;;;;;;;18.48;13.63;;;;;;;15.08;79.40;99148.59;406042;23;18147;-72
2023/05/16 00:09:46;;;;;;;18.65;13.65;;;;;;;15.09;79.21;99150.25;404493;23;9546;-73
2023/05/16 00:09:58;;;;;;;18.92;13.70;;;;;;;14.99;79.56;99152.59;408431;23;4584;-72
2023/05/16 00:10:11;;;;;;;20.92;14.13;;;;;;;15.00;79.78;99149.03;408063;23;5297;-73
2023/05/16 00:10:23;;;;;;;21.00;14.10;;;;;;;15.01;79.77;99155.13;407582;23;17611;-71
2023/05/16 00:10:36;;;;;;;19.27;13.97;;;;;;;15.01;79.71;99150.75;409390;23;4525;-72
2023/05/16 00:10:48;;;;;;;18.58;13.82;;;;;;;14.97;80.13;99151.84;405405;23;18180;-72
2023/05/16 00:11:00;;;;;;;18.38;13.95;;;;;;;14.94;80.23;99149.41;405881;23;5885;-73
2023/05/16 00:11:12;;;;;;;17.88;13.63;;;;;;;14.98;80.07;99145.69;406400;23;17527;-72
2023/05/16 00:11:24;;;;;;;17.67;13.90;;;;;;;15.01;79.90;99145.50;407458;23;5450;-73
2023/05/16 00:11:36;;;;;;;19.35;14.68;;;;;;;15.03;79.78;99154.13;405662;23;18323;-72
2023/05/16 00:11:49;;;;;;;20.45;14.93;;;;;;;15.05;79.64;99146.16;409668;23;5423;-72
2023/05/16 00:12:01;;;;;;;20.15;14.82;;;;;;;15.05;79.68;99152.25;406006;23;18257;-72
2023/05/16 00:12:12;;;;;;;19.55;14.18;;;;;;;15.08;79.56;99154.66;409074;23;4483;-72
2023/05/16 00:12:25;;;;;;;19.50;14.27;;;;;;;15.04;79.62;99147.94;408821;23;4451;-72
2023/05/16 00:12:38;;;;;;;18.42;14.50;;;;;;;15.00;79.65;99149.03;406030;23;17828;-72
2023/05/16 00:12:51;;;;;;;17.92;14.70;;;;;;;14.98;79.69;99150.91;406682;23;17621;-73
2023/05/16 00:13:03;;;;;;;18.17;14.70;;;;;;;14.88;80.05;99155.00;409369;23;5377;-71
2023/05/16 00:13:18;;;;;;;19.50;14.23;;;;;;;14.84;80.42;99153.50;406319;23;4916;-72
2023/05/16 00:13:30;;;;;;;21.98;14.18;;;;;;;14.89;80.19;99152.31;406466;23;8849;-72
2023/05/16 00:13:44;;;;;;;21.30;14.18;;;;;;;14.93;80.12;99152.94;409163;23;5276;-72
2023/05/16 00:13:56;;;;;;;20.27;14.35;;;;;;;14.85;80.55;99155.16;405952;23;18301;-72
2023/05/16 00:14:08;;;;;;;19.65;14.57;;;;;;;14.84;80.58;99156.94;408726;23;5013;-72
2023/05/16 00:14:20;;;;;;;20.13;14.30;;;;;;;14.87;80.42;99154.16;409494;23;4448;-72
2023/05/16 00:14:35;;;;;;;20.33;14.35;;;;;;;14.89;80.32;99154.06;406099;23;19295;-72
2023/05/16 00:14:49;;;;;;;21.05;14.85;;;;;;;14.89;80.42;99156.66;406150;23;18764;-71
2023/05/16 00:15:01;;;;;;;23.73;15.52;;;;;;;14.91;80.27;99154.81;405296;23;19143;-72
2023/05/16 00:15:14;;;;;;;24.98;15.27;;;;;;;14.94;80.31;99154.63;409874;23;5092;-72
2023/05/16 00:15:28;;;;;;;21.05;14.65;;;;;;;14.97;80.04;99149.25;406189;23;18047;-72
2023/05/16 00:15:40;;;;;;;19.13;14.40;;;;;;;14.98;80.10;99150.91;406385;23;5448;-73
2023/05/16 00:15:54;;;;;;;19.35;14.25;;;;;;;14.98;79.99;99150.91;409365;23;4502;-72
2023/05/16 00:16:06;;;;;;;19.63;14.18;;;;;;;14.98;79.98;99141.28;406234;23;19000;-72
2023/05/16 00:16:20;;;;;;;19.95;14.40;;;;;;;15.00;79.70;99149.03;409556;23;4575;-72
2023/05/16 00:16:32;;;;;;;20.58;14.52;;;;;;;14.88;80.18;99152.38;405557;23;18488;-72
2023/05/16 00:16:46;;;;;;;18.42;14.10;;;;;;;14.89;80.28;99152.31;408318;23;4533;-72
2023/05/16 00:16:58;;;;;;;19.00;14.38;;;;;;;14.91;80.25;99150.44;406007;23;18057;-73
2023/05/16 00:17:10;;;;;;;19.92;14.82;;;;;;;14.90;80.41;99153.13;407836;23;4639;-72
2023/05/16 00:17:27;;;;;;;22.52;15.38;;;;;;;14.88;80.30;99150.59;405462;23;17924;-71
2023/05/16 00:17:39;;;;;;;21.10;15.02;;;;;;;14.86;80.51;99152.47;406073;23;19177;-72
2023/05/16 00:17:52;;;;;;;18.25;14.38;;;;;;;14.85;80.41;99155.16;406418;23;17958;-71
2023/05/16 00:18:04;;;;;;;19.02;14.63;;;;;;;14.89;80.36;99154.91;409996;23;4599;-72
2023/05/16 00:18:18;;;;;;;19.48;14.75;;;;;;;14.92;80.31;99148.66;405827;23;18127;-72
2023/05/16 00:18:30;;;;;;;19.67;14.45;;;;;;;14.96;80.20;99147.53;407577;23;5245;-72
2023/05/16 00:18:44;;;;;;;20.00;15.00;;;;;;;14.97;79.99;99149.25;404489;23;18195;-72
2023/05/16 00:18:56;;;;;;;19.90;15.45;;;;;;;14.97;79.95;99149.25;403961;23;18235;-72
2023/05/16 00:19:08;;;;;;;19.55;14.98;;;;;;;14.99;79.87;99147.38;407183;23;4979;-72
2023/05/16 00:19:21;;;;;;;17.98;14.38;;;;;;;15.01;79.82;99139.41;403670;23;18043;-71
2023/05/16 00:19:34;;;;;;;19.05;14.50;;;;;;;14.99;79.88;99147.38;407133;23;5535;-71
2023/05/16 00:19:56;;;;;;;20.10;14.82;;;;;;;14.91;80.12;99141.72;404220;23;19051;-72
2023/05/16 00:20:13;;;;;;;19.83;15.43;;;;;;;14.96;80.19;99147.53;403655;23;17599;-72
2023/05/16 00:20:26;;;;;;;20.65;15.20;;;;;;;14.96;80.09;99147.53;404501;23;17646;-72
2023/05/16 00:20:39;;;;;;;20.85;14.90;;;;;;;14.98;79.92;99145.69;404727;23;17860;-70
2023/05/16 00:20:53;;;;;;;22.75;15.10;;;;;;;14.99;79.89;99144.75;405174;23;18154;-72
2023/05/16 00:21:05;;;;;;;23.02;14.90;;;;;;;14.96;80.09;99142.31;406318;23;5432;-73
2023/05/16 00:21:17;;;;;;;22.00;15.00;;;;;;;14.98;80.06;99148.28;409733;23;4476;-72
2023/05/16 00:21:31;;;;;;;22.90;16.08;;;;;;;15.01;79.96;99145.50;406109;23;17986;-73
2023/05/16 00:21:43;;;;;;;22.23;16.00;;;;;;;15.02;79.90;99148.97;409569;23;4492;-72
2023/05/16 00:21:55;;;;;;;20.65;15.15;;;;;;;14.98;80.10;99140.44;406519;23;5536;-73
2023/05/16 00:22:07;;;;;;;19.30;14.80;;;;;;;15.02;80.04;99149.78;409319;23;4438;-72
2023/05/16 00:22:20;;;;;;;20.73;15.15;;;;;;;15.02;79.85;99141.94;409114;23;4682;-72
2023/05/16 00:22:32;;;;;;;21.33;15.05;;;;;;;15.07;79.66;99144.28;406199;23;18143;-71
2023/05/16 00:22:45;;;;;;;19.90;14.27;;;;;;;15.07;79.65;99150.38;408964;23;4903;-73
2023/05/16 00:22:59;;;;;;;20.25;14.30;;;;;;;15.09;79.54;99145.91;406535;23;18134;-72
2023/05/16 00:23:12;;;;;;;22.38;15.13;;;;;;;15.11;79.49;99146.66;404666;23;17848;-72
2023/05/16 00:23:24;;;;;;;21.85;15.50;;;;;;;15.11;79.49;99146.66;408059;23;4518;-72
2023/05/16 00:23:36;;;;;;;21.07;15.33;;;;;;;15.14;79.29;99146.44;404810;23;17997;-72
2023/05/16 00:23:48;;;;;;;21.05;15.32;;;;;;;15.15;79.47;99147.28;407184;23;4828;-72
2023/05/16 00:24:00;;;;;;;21.48;15.20;;;;;;;15.13;79.40;99152.63;407142;23;4531;-71
2023/05/16 00:24:12;;;;;;;21.80;15.25;;;;;;;15.16;79.30;99155.06;404591;23;18131;-71
2023/05/16 00:24:24;;;;;;;22.40;15.10;;;;;;;15.13;79.13;99150.00;407344;23;4594;-71
2023/05/16 00:24:35;;;;;;;22.77;15.23;;;;;;;15.15;79.03;99153.38;404103;23;4674;-72
2023/05/16 00:24:47;;;;;;;20.50;14.98;;;;;;;15.16;79.26;99151.59;408276;23;4399;-72
2023/05/16 00:25:00;;;;;;;21.73;14.45;;;;;;;15.15;79.17;99150.75;407507;23;4779;-72
2023/05/16 00:25:12;;;;;;;21.35;14.65;;;;;;;15.16;79.09;99147.19;402498;23;19071;-72
2023/05/16 00:25:24;;;;;;;20.88;14.35;;;;;;;15.08;79.30;99144.19;407584;23;4764;-71
2023/05/16 00:25:36;;;;;;;18.98;14.23;;;;;;;15.08;79.36;99145.97;403201;23;16314;-72
2023/05/16 00:25:48;;;;;;;21.40;14.75;;;;;;;15.07;79.39;99150.38;407659;23;5193;-72
2023/05/16 00:26:00;;;;;;;21.98;15.05;;;;;;;15.07;79.34;99145.16;408725;23;4454;-72
2023/05/16 00:26:12;;;;;;;20.15;14.85;;;;;;;15.08;79.44;99141.56;403884;23;18176;-72
2023/05/16 00:26:25;;;;;;;20.77;15.07;;;;;;;15.06;79.48;99148.69;406952;23;4491;-72
2023/05/16 00:26:37;;;;;;;20.75;15.30;;;;;;;15.05;79.57;99147.00;405580;23;18074;-72
2023/05/16 00:26:49;;;;;;;20.73;15.32;;;;;;;15.07;79.49;99147.75;409579;23;4476;-73
2023/05/16 00:27:02;;;;;;;20.75;15.05;;;;;;;15.08;79.50;99141.56;405722;23;16224;-73
2023/05/16 00:27:14;;;;;;;19.88;14.95;;;;;;;15.00;79.58;99148.22;407109;23;4640;-72
2023/05/16 00:27:26;;;;;;;21.27;15.25;;;;;;;15.03;79.67;99146.25;404290;23;18219;-72
2023/05/16 00:27:38;;;;;;;21.65;15.32;;;;;;;15.04;79.67;99150.53;406532;23;5167;-72
2023/05/16 00:27:50;;;;;;;21.35;15.07;;;;;;;15.02;79.66;99141.94;407754;23;5000;-72
2023/05/16 00:28:02;;;;;;;20.25;15.18;;;;;;;15.04;79.55;99147.09;403580;23;18056;-72
2023/05/16 00:28:14;;;;;;;19.85;15.00;;;;;;;15.05;79.58;99147.00;406275;23;5257;-72
2023/05/16 00:28:26;;;;;;;19.95;14.70;;;;;;;15.08;79.56;99146.81;404173;23;18042;-72
2023/05/16 00:28:38;;;;;;;19.33;14.38;;;;;;;15.09;79.31;99143.28;407514;23;5537;-72
2023/05/16 00:28:50;;;;;;;18.65;14.48;;;;;;;15.07;79.67;99145.16;407574;23;4529;-72
2023/05/16 00:29:02;;;;;;;19.05;14.63;;;;;;;15.02;79.77;99147.19;404408;23;19188;-72
2023/05/16 00:29:14;;;;;;;19.35;15.02;;;;;;;15.06;79.82;99148.69;407862;23;4460;-72
2023/05/16 00:29:26;;;;;;;20.00;15.32;;;;;;;15.08;79.37;99146.81;403722;23;18307;-72
2023/05/16 00:29:38;;;;;;;20.00;15.27;;;;;;;15.10;79.61;99150.19;407442;23;5320;-71
2023/05/16 00:29:50;;;;;;;19.83;14.73;;;;;;;15.11;79.49;99145.78;407393;23;4835;-71
2023/05/16 00:30:06;;;;;;;19.67;14.50;;;;;;;15.13;79.57;99144.78;403967;23;18137;-71
2023/05/16 00:30:21;;;;;;;20.38;14.50;;;;;;;15.14;79.47;99143.84;404249;23;18114;-72
2023/05/16 00:30:34;;;;;;;20.83;14.52;;;;;;;15.15;79.30;99139.44;405789;23;18866;-72
2023/05/16 00:30:46;;;;;;;21.15;14.70;;;;;;;15.14;79.51;99140.38;406543;23;4481;-72
2023/05/16 00:30:58;;;;;;;20.88;14.65;;;;;;;15.16;79.43;99141.97;409432;23;4423;-71
2023/05/16 00:31:10;;;;;;;21.08;15.05;;;;;;;15.17;79.38;99141.03;410118;23;4471;-72
2023/05/16 00:31:22;;;;;;;20.75;15.40;;;;;;;15.16;79.20;99144.59;405932;23;18294;-71
2023/05/16 00:31:34;;;;;;;21.90;15.48;;;;;;;15.15;79.19;99140.28;409405;23;5269;-71
2023/05/16 00:31:46;;;;;;;20.75;14.63;;;;;;;15.17;79.29;99140.19;405692;23;19047;-72
2023/05/16 00:31:58;;;;;;;20.38;14.40;;;;;;;15.20;79.19;99144.41;409413;23;4432;-72
2023/05/16 00:32:10;;;;;;;20.85;14.75;;;;;;;15.20;78.98;99147.03;408183;23;8264;-73
2023/05/16 00:32:22;;;;;;;21.77;15.20;;;;;;;15.20;79.02;99140.00;406432;23;18240;-72
2023/05/16 00:32:38;;;;;;;21.25;15.35;;;;;;;15.18;79.07;99142.72;408202;23;4502;-72
2023/05/16 00:32:50;;;;;;;23.88;17.38;;;;;;;15.21;79.02;99146.91;404502;23;17916;-72
2023/05/16 00:33:02;;;;;;;24.25;18.33;;;;;;;15.18;79.17;99147.94;403591;23;16277;-71
2023/05/16 00:33:14;;;;;;;22.92;18.55;;;;;;;15.14;79.42;99145.63;406653;23;4553;-72
2023/05/16 00:33:26;;;;;;;22.48;17.52;;;;;;;15.08;79.55;99141.56;403228;23;18307;-72
2023/05/16 00:33:38;;;;;;;21.65;16.02;;;;;;;15.08;79.75;99141.56;407625;23;4499;-72
2023/05/16 00:33:50;;;;;;;21.73;15.68;;;;;;;15.09;79.70;99147.66;404988;23;4607;-73
2023/05/16 00:34:02;;;;;;;20.98;15.27;;;;;;;15.01;79.77;99145.50;406312;23;18092;-72
2023/05/16 00:34:14;;;;;;;20.70;15.15;;;;;;;14.98;80.07;99145.69;406251;23;4548;-72
2023/05/16 00:34:26;;;;;;;20.10;14.98;;;;;;;15.03;80.05;99148.88;400791;23;19147;-72
2023/05/16 00:34:39;;;;;;;21.83;15.63;;;;;;;15.01;80.04;99142.88;405298;23;5278;-72
2023/05/16 00:34:51;;;;;;;21.98;15.95;;;;;;;15.04;79.91;99141.84;402972;23;17881;-73
2023/05/16 00:35:03;;;;;;;20.75;16.17;;;;;;;15.06;79.84;99143.44;407734;23;4499;-72
2023/05/16 00:35:15;;;;;;;21.50;16.05;;;;;;;15.07;79.93;99145.16;407024;23;10972;-72
2023/05/16 00:35:27;;;;;;;21.88;15.88;;;;;;;15.07;79.92;99145.16;407631;23;18827;-72
2023/05/16 00:35:39;;;;;;;20.77;15.48;;;;;;;14.99;80.05;99144.75;409137;23;5501;-72
2023/05/16 00:35:52;;;;;;;19.70;15.57;;;;;;;15.00;80.42;99148.22;405799;23;18260;-73
2023/05/16 00:36:04;;;;;;;21.80;15.40;;;;;;;15.00;80.20;99149.03;409578;23;5117;-72
2023/05/16 00:36:16;;;;;;;21.25;15.02;;;;;;;14.98;80.23;99143.06;405704;23;17991;-72
2023/05/16 00:36:29;;;;;;;21.30;14.85;;;;;;;14.99;80.02;99142.13;410136;23;4467;-72
2023/05/16 00:36:41;;;;;;;21.42;15.05;;;;;;;14.98;80.31;99141.28;405412;23;4534;-72
2023/05/16 00:36:53;;;;;;;20.77;15.10;;;;;;;14.98;80.10;99150.91;408660;23;4607;-72
2023/05/16 00:37:05;;;;;;;20.77;15.77;;;;;;;14.93;80.33;99145.09;407577;23;4499;-72
2023/05/16 00:37:17;;;;;;;20.55;15.48;;;;;;;14.94;80.45;99144.16;408006;23;17452;-72
2023/05/16 00:37:29;;;;;;;22.27;15.57;;;;;;;14.93;80.50;99137.22;409234;23;4959;-73
2023/05/16 00:37:41;;;;;;;22.90;15.23;;;;;;;14.91;80.72;99146.94;409302;23;5175;-72
2023/05/16 00:37:53;;;;;;;21.13;15.27;;;;;;;14.91;80.61;99144.34;405569;23;18120;-73
2023/05/16 00:38:06;;;;;;;20.70;15.68;;;;;;;14.92;80.57;99140.81;409162;23;4424;-73
2023/05/16 00:38:18;;;;;;;21.30;15.40;;;;;;;14.94;80.39;99146.78;405282;23;18194;-72
2023/05/16 00:38:30;;;;;;;21.60;15.38;;;;;;;14.94;80.41;99144.16;409425;23;5020;-72
2023/05/16 00:38:42;;;;;;;21.40;15.40;;;;;;;14.88;80.83;99149.75;406591;23;5230;-73
2023/05/16 00:38:55;;;;;;;20.65;15.23;;;;;;;14.89;80.99;99146.19;408549;23;15899;-71
2023/05/16 00:39:07;;;;;;;19.95;15.20;;;;;;;14.95;80.64;99145.84;410378;23;4404;-72
2023/05/16 00:39:19;;;;;;;21.02;15.60;;;;;;;14.99;80.59;99147.38;405455;23;18213;-72
2023/05/16 00:39:31;;;;;;;21.88;16.48;;;;;;;15.01;80.48;99140.28;409135;23;4733;-72
2023/05/16 00:39:43;;;;;;;22.98;16.85;;;;;;;15.06;80.13;99146.06;406048;23;16259;-73
2023/05/16 00:39:55;;;;;;;23.92;16.80;;;;;;;15.04;80.15;99145.31;409283;23;5231;-72
2023/05/16 00:40:07;;;;;;;24.42;16.67;;;;;;;14.99;80.40;99142.13;409080;23;5245;-72
2023/05/16 00:40:20;;;;;;;25.05;16.70;;;;;;;14.96;80.37;99147.53;405920;23;18067;-72
2023/05/16 00:40:32;;;;;;;24.85;16.50;;;;;;;14.95;80.57;99145.84;408908;23;5410;-71
2023/05/16 00:40:45;;;;;;;25.02;16.10;;;;;;;14.94;80.70;99145.00;406033;23;18080;-71
2023/05/16 00:40:57;;;;;;;22.77;15.85;;;;;;;14.96;80.69;99143.13;409407;23;4909;-72
2023/05/16 00:41:09;;;;;;;22.08;15.88;;;;;;;14.95;80.45;99148.47;405659;23;18429;-72
2023/05/16 00:41:22;;;;;;;21.20;15.75;;;;;;;14.94;80.71;99138.94;410056;23;5125;-72
2023/05/16 00:41:34;;;;;;;21.92;16.05;;;;;;;14.96;80.74;99142.31;406797;23;18086;-72
2023/05/16 00:41:46;;;;;;;22.65;16.25;;;;;;;14.93;80.70;99145.09;409348;23;5099;-72
2023/05/16 00:41:58;;;;;;;22.65;16.15;;;;;;;14.94;80.65;99142.38;405636;23;17613;-72
2023/05/16 00:42:10;;;;;;;21.15;15.80;;;;;;;14.91;80.88;99141.72;409393;23;4410;-72
2023/05/16 00:42:22;;;;;;;21.20;16.13;;;;;;;14.92;80.84;99143.41;409072;23;4499;-72
2023/05/16 00:42:34;;;;;;;21.10;16.05;;;;;;;14.90;80.69;99148.72;405874;23;18088;-72
2023/05/16 00:42:46;;;;;;;20.70;15.70;;;;;;;14.92;80.72;99143.41;409658;23;4418;-72
2023/05/16 00:42:58;;;;;;;21.52;15.77;;;;;;;14.96;80.77;99144.94;406615;23;18348;-72
2023/05/16 00:43:10;;;;;;;23.20;16.30;;;;;;;14.99;80.47;99147.38;409474;23;4574;-72
2023/05/16 00:43:22;;;;;;;23.85;16.33;;;;;;;15.01;80.29;99150.75;407933;23;4505;-72
2023/05/16 00:43:34;;;;;;;23.00;16.25;;;;;;;15.03;80.44;99148.88;404400;23;17991;-72
2023/05/16 00:43:46;;;;;;;22.08;16.15;;;;;;;15.06;80.31;99145.22;407718;23;4730;-72
2023/05/16 00:43:58;;;;;;;21.80;16.25;;;;;;;15.02;80.35;99141.94;404172;23;18219;-72
2023/05/16 00:44:11;;;;;;;22.58;16.00;;;;;;;14.98;80.54;99150.91;407939;23;4707;-72
2023/05/16 00:44:23;;;;;;;22.98;15.98;;;;;;;14.98;80.49;99140.44;404072;23;6499;-73
2023/05/16 00:44:35;;;;;;;22.40;15.73;;;;;;;15.02;80.51;99144.56;407197;23;4524;-72
2023/05/16 00:44:47;;;;;;;20.92;15.63;;;;;;;15.01;80.40;99144.63;406924;23;4483;-72
2023/05/16 00:44:59;;;;;;;20.90;16.08;;;;;;;15.01;80.29;99144.63;403282;23;18274;-73
2023/05/16 00:45:11;;;;;;;22.33;16.20;;;;;;;15.04;80.22;99142.69;406681;23;4619;-72
2023/05/16 00:45:23;;;;;;;23.00;16.08;;;;;;;15.05;80.00;99151.38;403742;23;7721;-73
2023/05/16 00:45:35;;;;;;;25.13;16.35;;;;;;;15.05;80.26;99152.25;409318;23;5342;-72
2023/05/16 00:45:47;;;;;;;23.45;16.27;;;;;;;15.07;80.28;99150.38;409164;23;4735;-72
2023/05/16 00:45:59;;;;;;;22.85;16.08;;;;;;;15.12;79.97;99148.31;406244;23;9296;-72
2023/05/16 00:46:11;;;;;;;22.02;15.95;;;;;;;15.13;80.04;99150.00;409954;23;4480;-72
2023/05/16 00:46:23;;;;;;;21.85;15.43;;;;;;;15.11;79.93;99148.41;405844;23;16453;-73
2023/05/16 00:46:35;;;;;;;22.17;15.40;;;;;;;15.13;79.96;99149.16;409247;23;4836;-72
2023/05/16 00:46:47;;;;;;;21.63;15.32;;;;;;;15.14;79.83;99151.69;410205;23;4510;-72
2023/05/16 00:47:01;;;;;;;21.90;15.73;;;;;;;15.14;79.84;99146.44;406006;23;18314;-72
2023/05/16 00:47:13;;;;;;;21.40;15.60;;;;;;;15.17;79.76;99156.75;405097;23;9119;-73
2023/05/16 00:47:25;;;;;;;21.38;15.75;;;;;;;15.18;79.78;99147.94;409303;23;4630;-73
2023/05/16 00:47:37;;;;;;;21.83;16.10;;;;;;;15.21;79.59;99146.09;409636;23;5013;-73
2023/05/16 00:47:50;;;;;;;21.52;16.08;;;;;;;15.21;79.63;99152.16;406088;23;18019;-73
2023/05/16 00:48:02;;;;;;;20.50;15.55;;;;;;;15.23;79.36;99150.31;409087;23;4456;-72
2023/05/16 00:48:14;;;;;;;20.70;15.75;;;;;;;15.24;79.49;99149.38;406399;23;18054;-72
2023/05/16 00:48:27;;;;;;;20.30;15.50;;;;;;;15.25;79.29;99152.81;409941;23;4701;-72
2023/05/16 00:48:39;;;;;;;22.25;16.13;;;;;;;15.26;79.33;99151.91;405737;23;18129;-72
2023/05/16 00:48:51;;;;;;;22.58;15.90;;;;;;;15.26;79.17;99159.75;409267;23;5214;-73
2023/05/16 00:49:03;;;;;;;21.90;15.70;;;;;;;15.23;79.16;99149.44;406709;23;9468;-73
2023/05/16 00:49:16;;;;;;;20.55;15.35;;;;;;;15.23;79.34;99155.56;408478;23;4428;-73
2023/05/16 00:49:28;;;;;;;21.33;15.23;;;;;;;15.25;79.14;99152.81;408763;23;9805;-73
2023/05/16 00:49:41;;;;;;;21.83;15.35;;;;;;;15.25;79.17;99147.59;407992;23;17208;-72
2023/05/16 00:49:53;;;;;;;23.42;15.85;;;;;;;15.26;79.04;99147.50;409908;23;5226;-72
2023/05/16 00:50:06;;;;;;;22.52;16.00;;;;;;;15.26;78.98;99150.13;405302;23;19605;-72
2023/05/16 00:50:18;;;;;;;21.00;15.30;;;;;;;15.27;78.95;99156.19;408243;23;4483;-73
2023/05/16 00:50:33;;;;;;;20.80;15.35;;;;;;;15.28;78.87;99152.66;403922;23;18299;-73
2023/05/16 00:50:45;;;;;;;20.98;15.43;;;;;;;15.24;79.08;99151.16;404401;23;18969;-72
2023/05/16 00:50:57;;;;;;;20.25;14.73;;;;;;;15.27;79.02;99156.19;407204;23;5019;-72
2023/05/16 00:51:09;;;;;;;20.05;14.77;;;;;;;15.26;79.14;99154.50;404126;23;18430;-72
2023/05/16 00:51:21;;;;;;;20.00;15.38;;;;;;;15.28;78.84;99157.88;409343;23;4507;-72
2023/05/16 00:51:35;;;;;;;19.80;15.45;;;;;;;15.29;79.07;99155.19;403725;23;16120;-73
2023/05/16 00:51:47;;;;;;;20.23;15.40;;;;;;;15.28;79.04;99152.66;408567;23;4596;-73
2023/05/16 00:51:59;;;;;;;21.05;15.60;;;;;;;15.30;79.16;99156.00;408727;23;18241;-71
2023/05/16 00:52:11;;;;;;;20.63;15.25;;;;;;;15.32;79.03;99154.16;411173;23;4448;-72
2023/05/16 00:52:24;;;;;;;21.30;14.75;;;;;;;15.31;79.22;99153.31;408071;23;16305;-73
2023/05/16 00:52:36;;;;;;;21.13;14.85;;;;;;;15.32;78.96;99154.16;411215;23;4520;-73
2023/05/16 00:52:48;;;;;;;20.63;15.25;;;;;;;15.30;79.10;99156.00;408084;23;8678;-71
2023/05/16 00:53:00;;;;;;;21.42;15.43;;;;;;;15.32;79.16;99154.16;411411;23;4757;-71
2023/05/16 00:53:12;;;;;;;21.00;15.38;;;;;;;15.30;79.08;99145.53;412223;23;5385;-72
2023/05/16 00:53:25;;;;;;;19.73;15.07;;;;;;;15.31;79.06;99157.69;409857;23;17645;-72
2023/05/16 00:53:37;;;;;;;20.77;15.57;;;;;;;15.32;79.03;99154.16;413025;23;4510;-72
2023/05/16 00:53:49;;;;;;;24.33;16.20;;;;;;;15.28;79.19;99147.41;409235;23;18098;-72
2023/05/16 00:54:02;;;;;;;24.13;16.15;;;;;;;15.29;79.14;99149.09;411739;23;4616;-72
2023/05/16 00:54:14;;;;;;;21.83;15.90;;;;;;;15.24;79.31;99156.38;408763;23;4485;-73
2023/05/16 00:54:28;;;;;;;19.98;15.70;;;;;;;15.23;79.51;99150.31;411519;23;4465;-72
2023/05/16 00:54:40;;;;;;;19.25;15.20;;;;;;;15.26;79.37;99157.97;407289;23;18094;-72
2023/05/16 00:54:52;;;;;;;19.55;15.13;;;;;;;15.28;79.28;99152.66;408883;23;4616;-72
2023/05/16 00:55:05;;;;;;;19.02;14.73;;;;;;;15.30;79.45;99156.00;407042;23;18716;-73
2023/05/16 00:55:17;;;;;;;18.40;14.48;;;;;;;15.30;79.35;99156.84;411320;23;4431;-72
2023/05/16 00:55:29;;;;;;;17.85;14.20;;;;;;;15.33;79.04;99156.69;408021;23;17973;-72
2023/05/16 00:55:41;;;;;;;18.88;14.63;;;;;;;15.34;79.16;99152.28;411217;23;4529;-72
2023/05/16 00:55:55;;;;;;;18.60;14.73;;;;;;;15.32;79.28;99149.75;408052;23;4561;-73
2023/05/16 00:56:07;;;;;;;19.45;14.82;;;;;;;15.34;79.00;99162.75;411187;23;4493;-72
2023/05/16 00:56:20;;;;;;;19.85;14.60;;;;;;;15.36;78.86;99155.66;408248;23;19254;-72
2023/05/16 00:56:33;;;;;;;20.52;15.05;;;;;;;15.35;78.94;99154.81;410555;23;4477;-72
2023/05/16 00:56:45;;;;;;;21.17;15.65;;;;;;;15.35;79.31;99151.31;407612;23;18454;-72
2023/05/16 00:56:57;;;;;;;22.40;16.02;;;;;;;15.37;79.51;99152.06;411184;23;6135;-72
2023/05/16 00:57:09;;;;;;;22.77;15.85;;;;;;;15.38;79.16;99148.53;408391;23;18269;-71
2023/05/16 00:57:22;;;;;;;19.20;15.23;;;;;;;15.38;79.45;99154.59;411884;23;4636;-73
2023/05/16 00:57:35;;;;;;;19.98;15.00;;;;;;;15.36;79.37;99153.03;408432;23;18139;-73
2023/05/16 00:57:47;;;;;;;21.00;14.95;;;;;;;15.38;79.28;99154.59;411705;23;4493;-73
2023/05/16 00:57:59;;;;;;;21.45;15.15;;;;;;;15.38;79.32;99146.75;407531;23;18038;-72
2023/05/16 00:58:11;;;;;;;22.00;15.13;;;;;;;15.40;79.43;99149.28;410238;23;4620;-72
2023/05/16 00:58:24;;;;;;;21.70;14.77;;;;;;;15.42;79.20;99149.19;408346;23;16329;-73